createdAt,value
2022-09-05T00:00:39.935Z,38.19
2022-09-05T00:01:39.940Z,38.19
2022-09-05T00:02:48.686Z,43.67
2022-09-05T00:03:41.104Z,40.44
2022-09-05T00:04:39.925Z,36.25
2022-09-05T00:05:55.476Z,38.51
2022-09-05T00:06:40.882Z,34.97
2022-09-05T00:07:58.810Z,34.97
2022-09-05T00:08:40.866Z,40.28
2022-09-05T00:09:39.885Z,43.18
2022-09-05T00:11:39.601Z,42.22
2022-09-05T00:11:43.937Z,39.16
2022-09-05T00:12:39.834Z,39.32
2022-09-05T00:13:39.826Z,46.41
2022-09-05T00:15:16.766Z,40.28
2022-09-05T00:15:40.851Z,40.12
2022-09-05T00:16:39.802Z,41.41
2022-09-05T00:18:45.458Z,43.02
2022-09-05T00:22:31.755Z,40.93
2022-09-05T00:24:19.457Z,42.38
2022-09-05T00:24:28.309Z,39.32
2022-09-05T00:24:30.778Z,48.02
2022-09-05T00:24:32.907Z,43.99
2022-09-05T00:24:33.161Z,46.89
2022-09-05T00:25:00.782Z,39.48
2022-09-05T00:25:41.722Z,38.67
2022-09-05T00:26:49.993Z,36.42
2022-09-05T00:27:40.715Z,34.48
2022-09-05T00:28:39.732Z,34.16
2022-09-05T00:31:02.423Z,34.48
2022-09-05T00:31:51.426Z,34.64
2022-09-05T00:31:55.439Z,34.48
2022-09-05T00:32:40.727Z,34.64
2022-09-05T00:33:39.708Z,33.84
2022-09-05T00:34:47.716Z,35.29
2022-09-05T00:35:40.649Z,34.48
2022-09-05T00:36:39.645Z,34.64
2022-09-05T00:37:39.638Z,39.16
2022-09-05T00:38:39.657Z,37.22
2022-09-05T00:39:39.696Z,40.93
2022-09-05T00:40:39.709Z,41.57
2022-09-05T00:41:39.595Z,41.09
2022-09-05T00:42:40.591Z,39.48
2022-09-05T00:43:39.620Z,37.54
2022-09-05T00:44:39.579Z,35.77
2022-09-05T00:45:39.567Z,36.09
2022-09-05T00:46:39.638Z,44.63
2022-09-05T00:47:39.551Z,40.61
2022-09-05T00:48:39.547Z,35.77
2022-09-05T00:49:39.575Z,36.25
2022-09-05T00:50:39.530Z,40.61
2022-09-05T00:51:39.518Z,35.77
2022-09-05T00:52:39.511Z,39.32
2022-09-05T00:53:39.507Z,35.77
2022-09-05T00:54:41.269Z,36.58
2022-09-05T00:55:39.488Z,39.48
2022-09-05T00:56:39.497Z,39.96
2022-09-05T00:57:39.472Z,39.96
2022-09-05T00:58:39.463Z,42.38
2022-09-05T00:59:39.481Z,40.12
2022-09-05T01:00:39.448Z,42.06
2022-09-05T01:01:39.538Z,41.09
2022-09-05T01:02:51.699Z,48.18
2022-09-05T01:03:40.423Z,44.63
2022-09-05T01:04:39.439Z,46.73
2022-09-05T01:05:39.406Z,45.60
2022-09-05T01:06:39.414Z,39.16
2022-09-05T01:07:44.218Z,43.34
2022-09-05T01:08:40.381Z,49.47
2022-09-05T01:09:39.400Z,41.89
2022-09-05T01:10:39.392Z,38.35
2022-09-05T01:11:39.354Z,36.25
2022-09-05T01:12:39.344Z,39.32
2022-09-05T01:13:39.340Z,36.90
2022-09-05T01:14:39.359Z,43.99
2022-09-05T01:15:39.383Z,48.34
2022-09-05T01:16:39.319Z,47.53
2022-09-05T01:17:39.308Z,42.70
2022-09-05T01:18:39.307Z,40.77
2022-09-05T01:19:39.324Z,38.83
2022-09-05T01:20:39.289Z,40.44
2022-09-05T01:21:39.274Z,42.22
2022-09-05T01:22:39.275Z,44.31
2022-09-05T01:23:39.262Z,49.31
2022-09-05T01:24:39.284Z,47.05
2022-09-05T01:25:39.246Z,45.28
2022-09-05T01:26:39.235Z,37.22
2022-09-05T01:28:22.356Z,35.61
2022-09-05T01:29:17.757Z,36.58
2022-09-05T01:29:40.356Z,38.35
2022-09-05T01:30:39.210Z,37.87
2022-09-05T01:31:39.198Z,42.06
2022-09-05T01:32:39.190Z,40.93
2022-09-05T01:33:39.182Z,39.32
2022-09-05T01:34:39.181Z,40.44
2022-09-05T01:35:39.196Z,37.06
2022-09-05T01:36:39.159Z,37.87
2022-09-05T01:37:39.152Z,38.51
2022-09-05T01:38:39.141Z,37.54
2022-09-05T01:40:12.199Z,36.74
2022-09-05T01:40:40.189Z,42.38
2022-09-05T01:41:39.125Z,55.11
2022-09-05T01:42:39.109Z,45.60
2022-09-05T01:43:39.104Z,46.08
2022-09-05T01:44:39.108Z,49.95
2022-09-05T01:45:39.779Z,44.96
2022-09-05T01:46:39.142Z,42.70
2022-09-05T01:47:39.073Z,38.35
2022-09-05T01:48:39.070Z,44.47
2022-09-05T01:49:40.089Z,48.98
2022-09-05T01:50:39.051Z,45.60
2022-09-05T01:51:39.038Z,40.77
2022-09-05T01:52:39.030Z,41.09
2022-09-05T01:53:40.019Z,49.15
2022-09-05T01:54:39.039Z,40.28
2022-09-05T01:56:02.482Z,46.41
2022-09-05T01:56:39.999Z,37.87
2022-09-05T01:57:38.990Z,40.77
2022-09-05T01:58:38.988Z,41.25
2022-09-05T01:59:38.976Z,38.51
2022-09-05T02:00:38.987Z,38.83
2022-09-05T02:01:39.001Z,39.96
2022-09-05T02:02:39.094Z,41.73
2022-09-05T02:03:38.946Z,45.92
2022-09-05T02:04:38.939Z,49.47
2022-09-05T02:05:48.723Z,52.85
2022-09-05T02:06:39.927Z,57.85
2022-09-05T02:07:38.920Z,50.43
2022-09-05T02:08:38.912Z,47.21
2022-09-05T02:09:38.898Z,44.15
2022-09-05T02:10:38.921Z,41.57
2022-09-05T02:11:38.878Z,42.86
2022-09-05T02:12:38.877Z,44.63
2022-09-05T02:13:38.867Z,47.21
2022-09-05T02:14:39.432Z,44.96
2022-09-05T02:15:38.895Z,43.83
2022-09-05T02:16:38.841Z,47.21
2022-09-05T02:17:50.350Z,49.31
2022-09-05T02:18:39.825Z,43.02
2022-09-05T02:19:38.818Z,51.88
2022-09-05T02:20:38.835Z,48.18
2022-09-05T02:21:55.775Z,45.12
2022-09-05T02:22:39.792Z,49.63
2022-09-05T02:23:41.499Z,47.53
2022-09-05T02:24:38.783Z,44.63
2022-09-05T02:26:01.410Z,42.86
2022-09-05T02:26:39.759Z,42.06
2022-09-05T02:28:03.971Z,47.70
2022-09-05T02:28:39.888Z,51.40
2022-09-05T02:29:38.740Z,47.53
2022-09-05T02:30:47.342Z,51.72
2022-09-05T02:31:39.777Z,43.67
2022-09-05T02:32:43.091Z,44.31
2022-09-05T02:33:38.708Z,46.73
2022-09-05T02:34:38.705Z,47.05
2022-09-05T02:35:38.723Z,49.95
2022-09-05T02:36:38.689Z,48.34
2022-09-05T02:37:38.681Z,48.02
2022-09-05T02:45:03.838Z,43.51
2022-09-05T02:45:04.109Z,44.47
2022-09-05T02:45:08.005Z,45.44
2022-09-05T02:45:13.550Z,46.08
2022-09-05T02:45:18.189Z,45.76
2022-09-05T02:45:20.601Z,45.12
2022-09-05T02:45:24.272Z,47.53
2022-09-05T02:45:39.687Z,42.86
2022-09-05T02:46:38.717Z,44.96
2022-09-05T02:47:38.599Z,41.57
2022-09-05T02:48:38.589Z,47.86
2022-09-05T02:50:12.840Z,49.31
2022-09-05T02:55:22.287Z,45.44
2022-09-05T02:57:28.534Z,55.11
2022-09-05T02:57:34.044Z,43.83
2022-09-05T02:57:39.664Z,48.18
2022-09-05T02:57:40.445Z,45.76
2022-09-05T02:57:40.619Z,45.12
2022-09-05T02:57:42.483Z,55.91
2022-09-05T02:58:05.673Z,46.25
2022-09-05T02:59:08.151Z,47.86
2022-09-05T02:59:40.499Z,48.82
2022-09-05T03:00:38.536Z,53.33
2022-09-05T03:01:38.558Z,44.79
2022-09-05T03:02:38.553Z,48.98
2022-09-05T03:03:39.278Z,48.66
2022-09-05T03:04:38.468Z,49.31
2022-09-05T03:05:38.482Z,45.76
2022-09-05T03:06:38.448Z,41.73
2022-09-05T03:07:38.439Z,46.89
2022-09-05T03:08:38.427Z,55.11
2022-09-05T03:09:38.416Z,55.75
2022-09-05T03:10:53.250Z,49.47
2022-09-05T03:11:39.405Z,45.76
2022-09-05T03:12:38.401Z,50.43
2022-09-05T03:13:38.393Z,57.20
2022-09-05T03:14:39.379Z,55.27
2022-09-05T03:15:38.403Z,53.33
2022-09-05T03:16:44.885Z,50.92
2022-09-05T03:17:39.366Z,52.05
2022-09-05T03:18:38.353Z,54.46
2022-09-05T03:19:46.729Z,49.95
2022-09-05T03:20:39.355Z,50.11
2022-09-05T03:21:38.320Z,53.33
2022-09-05T03:22:38.315Z,53.33
2022-09-05T03:23:38.311Z,49.31
2022-09-05T03:24:38.305Z,48.34
2022-09-05T03:25:38.318Z,54.30
2022-09-05T03:26:38.285Z,51.08
2022-09-05T03:27:38.283Z,48.82
2022-09-05T03:28:38.267Z,53.82
2022-09-05T03:29:38.251Z,53.98
2022-09-05T03:30:39.478Z,51.08
2022-09-05T03:31:38.244Z,51.40
2022-09-05T03:32:42.075Z,50.92
2022-09-05T03:33:38.228Z,51.72
2022-09-05T03:34:38.220Z,58.01
2022-09-05T03:35:38.215Z,49.31
2022-09-05T03:36:38.234Z,49.95
2022-09-05T03:37:38.203Z,55.11
2022-09-05T03:38:38.189Z,52.85
2022-09-05T03:39:38.205Z,52.85
2022-09-05T03:40:38.177Z,54.95
2022-09-05T03:41:40.654Z,52.53
2022-09-05T03:42:38.171Z,50.92
2022-09-05T03:43:38.150Z,57.69
2022-09-05T03:44:38.153Z,56.56
2022-09-05T03:45:38.160Z,51.56
2022-09-05T03:46:39.130Z,52.37
2022-09-05T03:47:38.123Z,58.17
2022-09-05T03:48:38.176Z,61.07
2022-09-05T03:52:04.496Z,57.36
2022-09-05T03:54:07.016Z,57.52
2022-09-05T03:57:05.934Z,56.88
2022-09-05T03:57:11.774Z,50.76
2022-09-05T03:57:13.603Z,58.33
2022-09-05T03:57:15.048Z,48.82
2022-09-05T03:57:19.607Z,55.59
2022-09-05T03:57:28.500Z,59.30
2022-09-05T03:57:42.777Z,50.43
2022-09-05T03:59:40.022Z,57.36
2022-09-05T04:00:38.005Z,58.65
2022-09-05T04:03:20.280Z,52.53
2022-09-05T04:08:10.061Z,50.60
2022-09-05T04:08:10.117Z,51.24
2022-09-05T04:08:15.981Z,53.66
2022-09-05T04:08:17.182Z,57.20
2022-09-05T04:08:17.537Z,52.05
2022-09-05T04:08:29.814Z,52.53
2022-09-05T04:08:42.638Z,48.18
2022-09-05T04:09:50.611Z,51.88
2022-09-05T04:10:40.039Z,51.40
2022-09-05T04:11:37.924Z,56.07
2022-09-05T04:12:37.914Z,52.69
2022-09-05T04:13:37.912Z,56.88
2022-09-05T04:14:38.645Z,50.92
2022-09-05T04:15:37.921Z,57.36
2022-09-05T04:16:37.926Z,56.07
2022-09-05T04:17:37.879Z,53.66
2022-09-05T04:18:37.875Z,53.82
2022-09-05T04:19:37.863Z,54.79
2022-09-05T04:20:40.491Z,57.20
2022-09-05T04:21:38.871Z,56.56
2022-09-05T04:22:37.851Z,54.14
2022-09-05T04:23:37.846Z,57.04
2022-09-05T04:24:37.826Z,54.62
2022-09-05T04:25:37.850Z,49.63
2022-09-05T04:26:37.813Z,49.63
2022-09-05T04:27:37.806Z,52.05
2022-09-05T04:28:37.798Z,56.24
2022-09-05T04:29:37.790Z,57.69
2022-09-05T04:30:40.082Z,53.66
2022-09-05T04:31:37.864Z,57.85
2022-09-05T04:32:37.767Z,54.30
2022-09-05T04:33:37.764Z,60.26
2022-09-05T04:34:37.752Z,53.17
2022-09-05T04:35:37.738Z,54.14
2022-09-05T04:36:37.756Z,58.01
2022-09-05T04:37:47.853Z,56.56
2022-09-05T04:38:39.710Z,60.10
2022-09-05T04:39:37.758Z,60.10
2022-09-05T04:40:37.699Z,52.21
2022-09-05T04:41:39.751Z,52.05
2022-09-05T04:42:37.675Z,60.26
2022-09-05T04:43:37.670Z,59.62
2022-09-05T04:44:37.669Z,57.85
2022-09-05T04:45:37.735Z,56.88
2022-09-05T04:46:47.371Z,60.26
2022-09-05T04:47:38.643Z,55.75
2022-09-05T04:48:37.636Z,59.30
2022-09-05T04:49:37.624Z,59.62
2022-09-05T04:50:38.146Z,58.65
2022-09-05T04:51:37.635Z,59.62
2022-09-05T04:52:37.608Z,61.23
2022-09-05T04:53:37.595Z,59.62
2022-09-05T04:54:37.591Z,60.42
2022-09-05T04:55:37.582Z,59.30
2022-09-05T04:56:37.599Z,58.65
2022-09-05T04:57:37.593Z,57.69
2022-09-05T04:59:29.359Z,60.59
2022-09-05T05:04:11.733Z,60.10
2022-09-05T05:06:00.410Z,54.62
2022-09-05T05:06:11.540Z,53.66
2022-09-05T05:06:12.239Z,55.59
2022-09-05T05:06:14.655Z,59.30
2022-09-05T05:06:16.910Z,58.81
2022-09-05T05:06:17.933Z,58.01
2022-09-05T05:06:46.017Z,57.69
2022-09-05T05:07:39.602Z,59.14
2022-09-05T05:08:38.342Z,57.85
2022-09-05T05:09:37.479Z,60.91
2022-09-05T05:15:04.364Z,58.33
2022-09-05T05:17:55.596Z,60.59
2022-09-05T05:17:57.398Z,60.91
2022-09-05T05:18:03.804Z,58.81
2022-09-05T05:18:06.720Z,61.23
2022-09-05T05:18:07.956Z,61.07
2022-09-05T05:18:08.797Z,59.94
2022-09-05T05:18:12.786Z,62.36
2022-09-05T05:18:53.245Z,55.91
2022-09-05T05:19:39.441Z,60.59
2022-09-05T05:20:41.749Z,57.36
2022-09-05T05:21:38.412Z,56.07
2022-09-05T05:22:37.372Z,57.36
2022-09-05T05:23:37.364Z,58.81
2022-09-05T05:24:37.360Z,55.59
2022-09-05T05:25:37.363Z,56.07
2022-09-05T05:26:37.370Z,58.01
2022-09-05T05:27:37.345Z,58.97
2022-09-05T05:28:37.328Z,58.81
2022-09-05T05:29:37.319Z,60.26
2022-09-05T05:30:37.309Z,58.81
2022-09-05T05:31:37.402Z,56.24
2022-09-05T05:32:45.854Z,58.97
2022-09-05T05:33:38.282Z,58.97
2022-09-05T05:34:37.273Z,59.78
2022-09-05T05:35:41.954Z,58.81
2022-09-05T05:36:38.287Z,57.69
2022-09-05T05:37:37.257Z,56.72
2022-09-05T05:38:37.241Z,58.33
2022-09-05T05:39:37.268Z,55.75
2022-09-05T05:40:50.483Z,60.10
2022-09-05T05:41:38.250Z,59.62
2022-09-05T05:42:37.214Z,55.11
2022-09-05T05:43:37.212Z,56.56
2022-09-05T05:44:37.193Z,54.14
2022-09-05T05:45:37.225Z,57.20
2022-09-05T05:46:38.207Z,56.88
2022-09-05T05:47:37.179Z,58.49
2022-09-05T05:48:37.163Z,58.49
2022-09-05T05:49:37.170Z,58.49
2022-09-05T05:50:37.156Z,59.30
2022-09-05T05:52:02.521Z,58.17
2022-09-05T05:52:38.128Z,52.85
2022-09-05T05:53:43.635Z,53.01
2022-09-05T05:54:38.120Z,46.73
2022-09-05T05:55:50.320Z,47.05
2022-09-05T05:56:38.125Z,57.69
2022-09-05T05:57:37.091Z,48.34
2022-09-05T05:58:37.090Z,51.56
2022-09-05T05:59:37.071Z,51.56
2022-09-05T06:00:37.071Z,51.88
2022-09-05T06:01:38.770Z,56.24
2022-09-05T06:02:37.152Z,55.11
2022-09-05T06:03:37.185Z,55.43
2022-09-05T06:04:41.438Z,53.17
2022-09-05T06:05:38.034Z,49.79
2022-09-05T06:06:37.046Z,48.50
2022-09-05T06:07:59.818Z,53.17
2022-09-05T06:11:46.155Z,52.37
2022-09-05T06:14:50.243Z,51.08
2022-09-05T06:14:50.316Z,57.04
2022-09-05T06:14:58.260Z,52.37
2022-09-05T06:15:02.190Z,52.85
2022-09-05T06:15:05.066Z,52.05
2022-09-05T06:15:05.111Z,57.04
2022-09-05T06:15:37.958Z,59.46
2022-09-05T06:16:37.018Z,51.40
2022-09-05T06:17:36.944Z,54.14
2022-09-05T06:18:36.930Z,51.40
2022-09-05T06:20:16.436Z,49.47
2022-09-05T06:22:05.519Z,54.62
2022-09-05T06:22:09.628Z,47.37
2022-09-05T06:22:37.905Z,54.62
2022-09-05T06:23:39.276Z,52.21
2022-09-05T06:24:37.888Z,52.21
2022-09-05T06:25:36.883Z,51.56
2022-09-05T06:26:36.903Z,57.69
2022-09-05T06:27:36.870Z,53.66
2022-09-05T06:28:37.862Z,48.98
2022-09-05T06:29:38.081Z,49.79
2022-09-05T06:30:36.852Z,45.60
2022-09-05T06:31:36.947Z,50.27
2022-09-05T06:32:36.833Z,55.91
2022-09-05T06:33:36.838Z,51.24
2022-09-05T06:34:36.825Z,50.76
2022-09-05T06:35:36.847Z,48.66
2022-09-05T06:36:36.811Z,55.43
2022-09-05T06:37:36.801Z,50.76
2022-09-05T06:38:36.793Z,52.53
2022-09-05T06:39:36.832Z,49.15
2022-09-05T06:40:36.951Z,49.15
2022-09-05T06:41:36.785Z,48.02
2022-09-05T06:42:43.232Z,53.98
2022-09-05T06:43:37.763Z,47.37
2022-09-05T06:44:36.756Z,48.66
2022-09-05T06:45:36.753Z,57.69
2022-09-05T06:47:05.825Z,49.63
2022-09-05T06:47:37.773Z,46.41
2022-09-05T06:48:44.149Z,51.56
2022-09-05T06:49:40.078Z,50.76
2022-09-05T06:51:07.275Z,56.56
2022-09-05T06:51:37.718Z,49.63
2022-09-05T06:52:37.705Z,51.08
2022-09-05T06:53:36.700Z,49.31
2022-09-05T06:54:36.699Z,48.50
2022-09-05T06:55:36.725Z,58.49
2022-09-05T06:56:36.681Z,60.42
2022-09-05T06:57:40.037Z,51.40
2022-09-05T06:58:37.669Z,50.92
2022-09-05T06:59:36.663Z,53.01
2022-09-05T07:00:36.712Z,52.85
2022-09-05T07:01:59.830Z,48.18
2022-09-05T07:02:59.469Z,46.08
2022-09-05T07:03:37.646Z,54.79
2022-09-05T07:05:14.890Z,49.47
2022-09-05T07:05:44.979Z,49.15
2022-09-05T07:07:01.291Z,47.37
2022-09-05T07:07:40.266Z,59.62
2022-09-05T07:08:37.307Z,46.41
2022-09-05T07:09:37.608Z,47.70
2022-09-05T07:10:38.956Z,50.11
2022-09-05T07:11:37.620Z,54.30
2022-09-05T07:12:36.587Z,52.05
2022-09-05T07:13:39.833Z,51.40
2022-09-05T07:14:38.572Z,49.79
2022-09-05T07:15:36.648Z,53.66
2022-09-05T07:16:37.686Z,47.86
2022-09-05T07:17:53.571Z,49.63
2022-09-05T07:18:38.544Z,50.27
2022-09-05T07:19:36.540Z,51.88
2022-09-05T07:21:17.370Z,52.21
2022-09-05T07:21:37.565Z,50.43
2022-09-05T07:22:48.145Z,48.02
2022-09-05T07:24:06.667Z,54.14
2022-09-05T07:24:54.845Z,49.15
2022-09-05T07:25:37.723Z,49.79
2022-09-05T07:26:51.617Z,49.31
2022-09-05T07:27:42.014Z,48.34
2022-09-05T07:28:37.478Z,54.79
2022-09-05T07:29:36.478Z,48.98
2022-09-05T07:30:36.493Z,47.37
2022-09-05T07:31:37.698Z,56.72
2022-09-05T07:32:36.455Z,54.30
2022-09-05T07:33:36.451Z,51.24
2022-09-05T07:34:36.448Z,50.92
2022-09-05T07:35:41.610Z,46.57
2022-09-05T07:36:37.431Z,59.30
2022-09-05T07:37:36.431Z,52.69
2022-09-05T07:38:52.104Z,53.82
2022-09-05T07:39:37.424Z,56.07
2022-09-05T07:40:36.488Z,50.11
2022-09-05T07:41:36.400Z,52.37
2022-09-05T07:42:36.396Z,49.79
2022-09-05T07:43:36.390Z,46.57
2022-09-05T07:44:36.380Z,50.92
2022-09-05T07:45:36.428Z,50.76
2022-09-05T07:46:36.372Z,52.53
2022-09-05T07:47:36.368Z,51.08
2022-09-05T07:48:36.356Z,51.24
2022-09-05T07:49:36.347Z,55.59
2022-09-05T07:53:49.825Z,48.50
2022-09-05T07:56:48.948Z,43.67
2022-09-05T07:56:54.645Z,47.37
2022-09-05T07:57:00.083Z,58.49
2022-09-05T07:57:03.158Z,57.36
2022-09-05T07:57:08.067Z,50.27
2022-09-05T07:57:08.355Z,55.75
2022-09-05T07:57:51.068Z,47.86
2022-09-05T07:58:37.293Z,53.33
2022-09-05T07:59:36.286Z,56.56
2022-09-05T08:00:36.341Z,42.86
2022-09-05T08:01:37.477Z,47.21
2022-09-05T08:02:36.279Z,45.60
2022-09-05T08:03:36.264Z,50.43
2022-09-05T08:04:36.280Z,55.59
2022-09-05T08:05:36.319Z,47.53
2022-09-05T08:07:46.548Z,53.98
2022-09-05T08:07:46.631Z,51.72
2022-09-05T08:08:37.252Z,50.92
2022-09-05T08:10:06.108Z,49.63
2022-09-05T08:11:24.014Z,54.14
2022-09-05T08:11:37.202Z,50.76
2022-09-05T08:13:00.616Z,46.25
2022-09-05T08:13:38.610Z,51.24
2022-09-05T08:14:43.943Z,48.66
2022-09-05T08:15:46.690Z,47.37
2022-09-05T08:16:37.227Z,50.11
2022-09-05T08:17:36.170Z,48.02
2022-09-05T08:18:36.164Z,49.63
2022-09-05T08:19:36.154Z,50.92
2022-09-05T08:20:36.176Z,51.56
2022-09-05T08:21:39.857Z,55.43
2022-09-05T08:22:37.142Z,48.66
2022-09-05T08:23:36.135Z,49.47
2022-09-05T08:24:36.120Z,53.98
2022-09-05T08:25:37.570Z,51.24
2022-09-05T08:26:37.109Z,48.50
2022-09-05T08:27:36.098Z,53.66
2022-09-05T08:28:39.277Z,48.34
2022-09-05T08:29:36.096Z,50.11
2022-09-05T08:30:36.114Z,44.96
2022-09-05T08:31:36.117Z,53.66
2022-09-05T08:32:37.069Z,50.11
2022-09-05T08:33:36.065Z,53.50
2022-09-05T08:34:45.264Z,48.02
2022-09-05T08:35:37.081Z,41.09
2022-09-05T08:36:36.042Z,45.44
2022-09-05T08:37:36.043Z,46.08
2022-09-05T08:38:40.344Z,54.79
2022-09-05T08:39:37.082Z,52.05
2022-09-05T08:40:36.022Z,48.82
2022-09-05T08:41:44.737Z,48.66
2022-09-05T08:42:37.627Z,47.05
2022-09-05T08:46:25.480Z,48.18
2022-09-05T08:46:39.460Z,45.60
2022-09-05T08:46:41.900Z,47.37
2022-09-05T08:46:49.268Z,50.92
2022-09-05T08:47:46.021Z,54.95
2022-09-05T08:48:36.963Z,45.60
2022-09-05T08:49:37.798Z,47.37
2022-09-05T08:50:35.953Z,46.57
2022-09-05T08:51:35.971Z,42.38
2022-09-05T08:52:36.941Z,49.31
2022-09-05T08:53:46.665Z,44.96
2022-09-05T08:54:37.177Z,52.53
2022-09-05T08:55:35.913Z,55.75
2022-09-05T08:56:35.931Z,47.86
2022-09-05T08:57:35.904Z,49.63
2022-09-05T08:58:35.905Z,49.47
2022-09-05T08:59:35.893Z,48.66
2022-09-05T09:00:36.024Z,51.40
2022-09-05T09:01:52.972Z,48.50
2022-09-05T09:02:47.051Z,55.27
2022-09-05T09:03:36.981Z,53.33
2022-09-05T09:04:35.876Z,53.01
2022-09-05T09:06:12.177Z,46.41
2022-09-05T09:06:36.883Z,48.18
2022-09-05T09:07:51.280Z,45.76
2022-09-05T09:08:36.831Z,52.69
2022-09-05T09:09:35.834Z,45.44
2022-09-05T09:10:35.862Z,45.44
2022-09-05T09:11:36.626Z,52.53
2022-09-05T09:12:35.811Z,49.79
2022-09-05T09:13:35.804Z,46.57
2022-09-05T09:14:35.799Z,45.44
2022-09-05T09:15:35.824Z,44.31
2022-09-05T09:16:35.838Z,45.12
2022-09-05T09:17:35.781Z,57.36
2022-09-05T09:18:36.123Z,41.57
2022-09-05T09:19:36.765Z,45.28
2022-09-05T09:20:35.786Z,51.24
2022-09-05T09:21:35.764Z,46.41
2022-09-05T09:22:35.750Z,46.08
2022-09-05T09:23:35.745Z,48.34
2022-09-05T09:24:35.734Z,48.50
2022-09-05T09:25:35.753Z,54.14
2022-09-05T09:26:35.723Z,47.70
2022-09-05T09:27:44.567Z,44.15
2022-09-05T09:28:49.645Z,45.12
2022-09-05T09:29:36.707Z,50.76
2022-09-05T09:30:35.719Z,48.34
2022-09-05T09:31:35.751Z,47.86
2022-09-05T09:32:35.686Z,45.92
2022-09-05T09:33:35.681Z,48.82
2022-09-05T09:34:36.762Z,50.60
2022-09-05T09:35:35.689Z,49.63
2022-09-05T09:36:35.659Z,48.66
2022-09-05T09:37:51.843Z,47.70
2022-09-05T09:38:36.640Z,49.63
2022-09-05T09:39:38.619Z,56.40
2022-09-05T09:40:35.629Z,48.18
2022-09-05T09:41:35.647Z,48.98
2022-09-05T09:42:35.617Z,46.89
2022-09-05T09:43:35.620Z,48.66
2022-09-05T09:44:35.604Z,51.72
2022-09-05T09:45:35.597Z,48.82
2022-09-05T09:46:38.996Z,48.50
2022-09-05T09:47:35.588Z,46.41
2022-09-05T09:48:35.576Z,48.98
2022-09-05T09:49:35.569Z,46.57
2022-09-05T09:50:35.565Z,46.25
2022-09-05T09:51:35.582Z,44.31
2022-09-05T09:52:35.562Z,52.69
2022-09-05T09:53:37.114Z,54.79
2022-09-05T09:54:35.539Z,52.37
2022-09-05T09:55:35.554Z,49.79
2022-09-05T09:56:35.521Z,48.34
2022-09-05T09:57:35.513Z,49.95
2022-09-05T09:58:35.508Z,51.72
2022-09-05T09:59:35.525Z,47.21
2022-09-05T10:00:36.518Z,53.17
2022-09-05T10:01:37.291Z,52.69
2022-09-05T10:04:07.317Z,55.59
2022-09-05T10:06:45.309Z,51.24
2022-09-05T10:10:33.984Z,47.70
2022-09-05T10:10:36.002Z,49.95
2022-09-05T10:10:44.492Z,51.88
2022-09-05T10:10:44.731Z,45.60
2022-09-05T10:10:59.755Z,47.37
2022-09-05T10:11:01.342Z,43.67
2022-09-05T10:11:08.007Z,49.63
2022-09-05T10:11:54.863Z,45.60
2022-09-05T10:12:37.408Z,47.37
2022-09-05T10:13:35.405Z,48.66
2022-09-05T10:14:49.013Z,47.37
2022-09-05T10:15:36.385Z,44.79
2022-09-05T10:16:35.408Z,48.34
2022-09-05T10:17:35.394Z,46.73
2022-09-05T10:18:35.368Z,51.40
2022-09-05T10:20:37.352Z,47.05
2022-09-05T10:21:35.364Z,47.86
2022-09-05T10:22:37.258Z,47.86
2022-09-05T10:23:36.325Z,47.37
2022-09-05T10:24:36.317Z,42.38
2022-09-05T10:25:35.313Z,43.18
2022-09-05T10:26:35.393Z,45.44
2022-09-05T10:27:35.298Z,46.89
2022-09-05T10:28:35.286Z,51.72
2022-09-05T10:29:38.514Z,48.02
2022-09-05T10:32:34.699Z,49.79
2022-09-05T10:35:05.713Z,57.52
2022-09-05T10:35:11.195Z,53.50
2022-09-05T10:35:12.999Z,56.88
2022-09-05T10:35:14.710Z,60.42
2022-09-05T10:35:37.305Z,55.75
2022-09-05T10:36:35.290Z,49.15
2022-09-05T10:37:36.442Z,49.47
2022-09-05T10:38:35.211Z,50.92
2022-09-05T10:39:35.244Z,56.88
2022-09-05T10:40:45.426Z,51.24
2022-09-05T10:41:36.214Z,48.34
2022-09-05T10:42:35.185Z,48.34
2022-09-05T10:43:36.174Z,43.02
2022-09-05T10:44:35.175Z,52.69
2022-09-05T10:45:38.062Z,45.92
2022-09-05T10:46:51.807Z,46.57
2022-09-05T10:47:37.148Z,46.73
2022-09-05T10:48:35.138Z,52.21
2022-09-05T10:49:36.131Z,47.86
2022-09-05T10:50:35.120Z,57.85
2022-09-05T10:51:37.667Z,45.44
2022-09-05T10:52:35.103Z,51.08
2022-09-05T10:53:39.072Z,47.53
2022-09-05T10:54:35.092Z,52.53
2022-09-05T10:55:35.082Z,43.34
2022-09-05T10:56:35.102Z,42.54
2022-09-05T10:57:35.068Z,52.69
2022-09-05T10:59:31.790Z,55.59
2022-09-05T11:02:18.857Z,44.31
2022-09-05T11:02:24.156Z,55.91
2022-09-05T11:02:26.498Z,49.31
2022-09-05T11:02:39.810Z,49.79
2022-09-05T11:03:37.167Z,44.47
2022-09-05T11:04:46.439Z,53.33
2022-09-05T11:05:36.067Z,49.31
2022-09-05T11:06:35.023Z,43.34
2022-09-05T11:07:34.995Z,50.92
2022-09-05T11:08:34.983Z,49.63
2022-09-05T11:09:34.976Z,48.98
2022-09-05T11:10:34.963Z,49.63
2022-09-05T11:11:35.495Z,46.73
2022-09-05T11:12:34.958Z,51.24
2022-09-05T11:13:34.946Z,50.11
2022-09-05T11:14:34.936Z,50.92
2022-09-05T11:15:34.943Z,49.79
2022-09-05T11:16:34.964Z,54.30
2022-09-05T11:17:34.917Z,50.76
2022-09-05T11:18:55.675Z,49.15
2022-09-05T11:19:35.898Z,48.50
2022-09-05T11:20:35.902Z,49.63
2022-09-05T11:21:34.885Z,56.24
2022-09-05T11:22:34.904Z,52.53
2022-09-05T11:23:34.866Z,43.83
2022-09-05T11:24:34.859Z,51.88
2022-09-05T11:25:40.843Z,47.86
2022-09-05T11:26:35.875Z,48.82
2022-09-05T11:27:34.835Z,41.25
2022-09-05T11:28:36.910Z,43.51
2022-09-05T11:29:35.824Z,41.57
2022-09-05T11:30:38.733Z,39.96
2022-09-05T11:32:10.501Z,48.34
2022-09-05T11:38:53.665Z,43.18
2022-09-05T11:39:46.713Z,45.76
2022-09-05T11:39:47.801Z,47.86
2022-09-05T11:39:48.724Z,53.98
2022-09-05T11:39:50.925Z,49.15
2022-09-05T11:40:06.454Z,45.44
2022-09-05T11:40:08.725Z,44.63
2022-09-05T11:40:08.820Z,43.18
2022-09-05T11:40:57.783Z,55.91
2022-09-05T11:41:36.785Z,51.24
2022-09-05T11:42:34.751Z,50.92
2022-09-05T11:43:34.734Z,41.89
2022-09-05T11:44:34.716Z,44.47
2022-09-05T11:45:34.707Z,44.96
2022-09-05T11:46:34.764Z,48.02
2022-09-05T11:47:40.993Z,41.41
2022-09-05T11:48:36.683Z,43.99
2022-09-05T11:49:34.679Z,45.92
2022-09-05T11:50:34.672Z,45.76
2022-09-05T11:51:34.663Z,45.28
2022-09-05T11:52:34.680Z,37.87
2022-09-05T11:53:34.653Z,44.15
2022-09-05T11:54:34.643Z,44.79
2022-09-05T11:55:34.636Z,48.02
2022-09-05T11:56:38.340Z,43.34
2022-09-05T11:57:35.634Z,41.89
2022-09-05T11:58:44.725Z,43.02
2022-09-05T11:59:35.605Z,40.61
2022-09-05T12:00:34.628Z,43.99
2022-09-05T12:01:43.033Z,48.98
2022-09-05T12:02:37.721Z,48.50
2022-09-05T12:03:53.529Z,44.63
2022-09-05T12:04:36.282Z,51.56
2022-09-05T12:05:49.848Z,48.82
2022-09-05T12:06:35.619Z,51.24
2022-09-05T12:07:34.562Z,52.21
2022-09-05T12:08:34.542Z,39.16
2022-09-05T12:09:34.533Z,49.15
2022-09-05T12:10:43.851Z,49.47
2022-09-05T12:11:35.513Z,47.21
2022-09-05T12:12:41.095Z,46.25
2022-09-05T12:13:35.499Z,48.34
2022-09-05T12:14:34.490Z,45.92
2022-09-05T12:15:34.645Z,52.37
2022-09-05T12:16:34.501Z,49.63
2022-09-05T12:17:35.604Z,48.18
2022-09-05T12:18:34.461Z,44.63
2022-09-05T12:19:35.456Z,45.12
2022-09-05T12:20:43.500Z,48.98
2022-09-05T12:21:38.400Z,49.79
2022-09-05T12:22:34.454Z,46.08
2022-09-05T12:23:53.932Z,44.47
2022-09-05T12:25:23.734Z,44.63
2022-09-05T12:27:42.120Z,47.53
2022-09-05T12:27:43.216Z,51.72
2022-09-05T12:27:43.795Z,49.31
2022-09-05T12:29:26.428Z,45.60
2022-09-05T12:29:38.802Z,48.34
2022-09-05T12:30:55.153Z,43.02
2022-09-05T12:32:34.334Z,47.86
2022-09-05T12:33:47.981Z,44.79
2022-09-05T12:36:04.622Z,46.57
2022-09-05T12:36:06.371Z,47.05
2022-09-05T12:36:09.770Z,49.95
2022-09-05T12:40:28.658Z,47.70
2022-09-05T12:40:46.236Z,43.18
2022-09-05T12:40:54.351Z,46.41
2022-09-05T12:40:54.679Z,43.34
2022-09-05T12:41:37.771Z,45.60
2022-09-05T12:42:08.496Z,48.50
2022-09-05T12:43:16.869Z,53.17
2022-09-05T12:44:38.263Z,45.76
2022-09-05T12:44:41.691Z,44.96
2022-09-05T12:45:37.430Z,54.30
2022-09-05T12:46:34.243Z,52.05
2022-09-05T12:47:34.263Z,49.63
2022-09-05T12:48:38.378Z,49.31
2022-09-05T12:49:36.278Z,46.25
2022-09-05T12:50:34.217Z,51.56
2022-09-05T12:51:46.795Z,55.59
2022-09-05T12:52:36.225Z,54.95
2022-09-05T12:53:34.198Z,46.89
2022-09-05T12:54:34.865Z,47.53